createdAt,value
2023-03-11T00:03:09.294Z,0.80
2023-03-11T00:07:11.665Z,0.90
2023-03-11T00:11:13.364Z,0.90
2023-03-11T00:15:14.988Z,0.80
2023-03-11T00:19:16.858Z,0.80
2023-03-11T00:23:18.489Z,0.80
2023-03-11T00:27:20.085Z,0.80
2023-03-11T00:31:22.643Z,0.80
2023-03-11T00:35:25.283Z,0.80
2023-03-11T00:39:26.893Z,0.80
2023-03-11T00:43:28.681Z,0.80
2023-03-11T00:47:30.269Z,0.80
2023-03-11T00:51:34.184Z,0.80
2023-03-11T00:55:35.968Z,0.80
2023-03-11T00:59:37.552Z,0.80
2023-03-11T01:03:39.604Z,0.90
2023-03-11T01:07:41.466Z,0.80
2023-03-11T01:11:43.129Z,0.80
2023-03-11T01:15:44.728Z,0.80
2023-03-11T01:19:46.354Z,0.90
2023-03-11T01:23:47.969Z,0.90
2023-03-11T01:27:49.555Z,0.80
2023-03-11T01:31:51.278Z,0.80
2023-03-11T01:35:52.883Z,0.70
2023-03-11T01:39:54.544Z,0.80
2023-03-11T01:43:56.145Z,0.70
2023-03-11T01:47:57.702Z,0.70
2023-03-11T01:52:07.615Z,0.80
2023-03-11T01:56:09.235Z,0.70
2023-03-11T02:00:12.587Z,0.80
2023-03-11T02:04:14.813Z,0.80
2023-03-11T02:08:16.437Z,0.70
2023-03-11T02:12:18.176Z,0.70
2023-03-11T02:16:19.863Z,0.70
2023-03-11T02:20:40.660Z,0.60
2023-03-11T02:25:00.780Z,0.60
2023-03-11T02:29:03.938Z,0.50
2023-03-11T02:33:05.638Z,0.40
2023-03-11T02:37:08.668Z,0.40
2023-03-11T02:41:10.311Z,0.40
2023-03-11T02:45:13.805Z,0.40
2023-03-11T02:49:15.924Z,0.30
2023-03-11T02:53:17.543Z,0.20
2023-03-11T02:57:19.163Z,0.20
2023-03-11T03:01:23.627Z,0.20
2023-03-11T03:05:25.210Z,0.20
2023-03-11T03:09:26.776Z,0.20
2023-03-11T03:13:29.385Z,0.20
2023-03-11T03:17:31.091Z,0.10
2023-03-11T03:21:32.677Z,0.10
2023-03-11T03:25:34.396Z,0.00
2023-03-11T03:29:35.976Z,0.10
2023-03-11T03:33:37.803Z,0.10
2023-03-11T03:37:39.454Z,0.10
2023-03-11T03:41:41.128Z,0.00
2023-03-11T03:45:42.730Z,0.00
2023-03-11T03:49:44.406Z,-0.10
2023-03-11T03:53:48.952Z,-0.10
2023-03-11T03:57:50.584Z,-0.10
2023-03-11T04:01:52.253Z,-0.10
2023-03-11T04:05:54.219Z,-0.20
2023-03-11T04:09:55.788Z,-0.20
2023-03-11T04:13:57.368Z,-0.20
2023-03-11T05:57:13.736Z,-1.00
2023-03-11T06:01:16.624Z,-0.90
2023-03-11T06:05:18.311Z,-0.90
2023-03-11T06:09:20.043Z,-0.80
2023-03-11T06:13:21.564Z,-0.80
2023-03-11T06:17:23.157Z,-0.80
2023-03-11T06:21:26.681Z,-0.80
2023-03-11T06:25:28.326Z,-0.80
2023-03-11T06:29:30.249Z,-0.80
2023-03-11T06:33:32.062Z,-0.70
2023-03-11T06:37:35.685Z,-0.60
2023-03-11T06:41:37.330Z,-0.60
2023-03-11T06:45:39.038Z,-0.50
2023-03-11T06:49:42.791Z,-0.50
2023-03-11T06:53:44.829Z,-0.50
2023-03-11T06:57:46.674Z,-0.40
2023-03-11T07:01:48.320Z,-0.40
2023-03-11T07:05:50.658Z,-0.40
2023-03-11T07:09:54.579Z,-0.30
2023-03-11T07:13:56.671Z,-0.30
2023-03-11T07:17:58.489Z,-0.20
2023-03-11T07:22:00.457Z,-0.10
2023-03-11T07:26:02.038Z,-0.10
2023-03-11T07:30:03.879Z,-0.10
2023-03-11T07:34:11.047Z,0.00
2023-03-11T07:38:12.743Z,0.10
2023-03-11T07:42:14.993Z,0.20
2023-03-11T07:46:18.497Z,0.20
2023-03-11T07:50:22.354Z,0.20
2023-03-11T07:54:23.947Z,0.30
2023-03-11T07:58:25.680Z,0.40
2023-03-11T08:02:27.452Z,0.50
2023-03-11T08:06:31.265Z,0.70
2023-03-11T08:10:32.882Z,0.90
2023-03-11T08:14:34.513Z,1.00
2023-03-11T08:18:36.216Z,1.10
2023-03-11T08:22:43.397Z,1.20
2023-03-11T08:26:50.382Z,1.30
2023-03-11T08:30:52.059Z,1.50
2023-03-11T08:34:53.765Z,1.50
2023-03-11T08:38:55.554Z,1.60
2023-03-11T08:42:59.030Z,1.60
2023-03-11T08:47:01.144Z,1.70
2023-03-11T08:51:03.078Z,1.70
2023-03-11T08:55:05.163Z,1.90
2023-03-11T08:59:08.411Z,2.00
2023-03-11T09:03:10.138Z,2.00
2023-03-11T09:07:11.944Z,1.80
2023-03-11T09:11:15.880Z,2.00
2023-03-11T09:15:17.560Z,2.20
2023-03-11T09:19:19.132Z,2.40
2023-03-11T09:23:20.900Z,2.10
2023-03-11T09:27:22.645Z,2.60
2023-03-11T09:31:24.286Z,2.30
2023-03-11T09:35:25.980Z,2.40
2023-03-11T09:39:31.419Z,2.50
2023-03-11T09:43:48.554Z,2.70
2023-03-11T09:47:56.135Z,2.30
2023-03-11T09:52:00.506Z,2.80
2023-03-11T09:56:05.501Z,3.00
2023-03-11T10:00:07.492Z,2.70
2023-03-11T10:04:28.236Z,2.60
2023-03-11T10:08:48.047Z,2.60
2023-03-11T10:12:57.992Z,3.00
2023-03-11T10:17:13.508Z,3.40
2023-03-11T10:21:44.313Z,3.20
2023-03-11T10:26:00.948Z,2.90
2023-03-11T10:30:05.655Z,2.90
2023-03-11T10:34:25.848Z,2.90
2023-03-11T10:38:30.550Z,3.60
2023-03-11T10:42:32.868Z,3.30
2023-03-11T10:46:34.483Z,3.50
2023-03-11T10:50:36.752Z,3.50
2023-03-11T10:54:46.196Z,3.10
2023-03-11T10:58:48.594Z,2.90
2023-03-11T11:02:58.262Z,3.10
2023-03-11T11:07:19.757Z,3.00
2023-03-11T11:11:22.565Z,3.30
2023-03-11T11:15:24.266Z,3.60
2023-03-11T11:19:27.329Z,4.10
2023-03-11T11:23:34.099Z,4.20
2023-03-11T11:27:35.667Z,4.10
2023-03-11T11:31:38.193Z,4.30
2023-03-11T11:35:49.159Z,3.80
2023-03-11T11:39:52.975Z,4.00
2023-03-11T11:44:05.889Z,4.10
2023-03-11T11:48:27.910Z,3.90
2023-03-11T11:52:44.118Z,3.50
2023-03-11T11:56:46.689Z,3.30
2023-03-11T12:00:58.356Z,3.30
2023-03-11T12:05:15.688Z,3.60
2023-03-11T12:09:27.568Z,3.50
2023-03-11T12:13:35.226Z,3.50
2023-03-11T12:17:39.443Z,3.50
2023-03-11T12:22:07.521Z,4.20
2023-03-11T12:26:18.131Z,4.40
2023-03-11T12:30:30.331Z,4.70
2023-03-11T12:34:34.280Z,4.20
2023-03-11T12:38:38.623Z,4.40
2023-03-11T12:42:41.005Z,4.20
2023-03-11T12:46:54.733Z,4.10
2023-03-11T12:50:57.509Z,4.60
2023-03-11T12:54:59.065Z,4.70
2023-03-11T12:59:29.976Z,4.80
2023-03-11T13:03:43.006Z,5.00
2023-03-11T13:07:53.885Z,4.40
2023-03-11T13:11:55.442Z,4.20
2023-03-11T13:15:57.623Z,4.80
2023-03-11T13:19:59.336Z,4.70
2023-03-11T13:24:19.367Z,4.90
2023-03-11T13:28:39.381Z,4.70
2023-03-11T13:32:40.978Z,5.10
2023-03-11T13:37:03.544Z,4.80
2023-03-11T13:41:13.531Z,5.20
2023-03-11T13:45:25.339Z,5.00
2023-03-11T13:49:26.957Z,5.20
2023-03-11T13:53:28.501Z,5.20
2023-03-11T13:57:31.626Z,5.20
2023-03-11T14:01:33.256Z,5.10
2023-03-11T14:05:36.051Z,4.90
2023-03-11T14:09:37.654Z,4.80
2023-03-11T14:13:43.226Z,5.20
2023-03-11T14:17:46.580Z,5.60
2023-03-11T14:21:55.234Z,5.50
2023-03-11T14:26:05.288Z,5.00
2023-03-11T14:30:07.353Z,5.40
2023-03-11T14:34:22.560Z,5.80
2023-03-11T14:38:25.425Z,5.40
2023-03-11T14:42:30.158Z,5.40
2023-03-11T14:46:31.751Z,5.70
2023-03-11T14:50:35.264Z,5.70
2023-03-11T14:54:37.778Z,5.40
2023-03-11T14:58:42.417Z,5.30
2023-03-11T15:02:55.657Z,5.80
2023-03-11T15:06:57.444Z,5.50
2023-03-11T15:11:03.286Z,5.90
2023-03-11T15:15:20.659Z,5.40
2023-03-11T15:19:28.269Z,5.50
2023-03-11T15:23:30.193Z,5.60
2023-03-11T15:27:33.001Z,5.40
2023-03-11T15:31:38.458Z,5.70
2023-03-11T15:35:47.329Z,5.90
2023-03-11T15:39:52.181Z,6.00
2023-03-11T15:43:54.775Z,5.70
2023-03-11T15:47:56.359Z,5.60
2023-03-11T15:51:58.649Z,5.40
2023-03-11T15:56:07.780Z,5.50
2023-03-11T16:00:20.997Z,5.80
2023-03-11T16:04:22.712Z,5.90
2023-03-11T16:08:24.399Z,6.00
2023-03-11T16:12:26.018Z,5.80
2023-03-11T16:16:27.790Z,5.60
2023-03-11T16:20:32.985Z,5.40
2023-03-11T16:24:34.705Z,5.70
2023-03-11T16:28:36.324Z,5.60
2023-03-11T16:32:37.939Z,5.20
2023-03-11T16:36:39.587Z,5.40
2023-03-11T16:40:41.229Z,5.10
2023-03-11T16:44:42.844Z,5.30
2023-03-11T16:48:44.560Z,5.40
2023-03-11T16:52:46.727Z,5.30
2023-03-11T16:56:48.294Z,5.20
2023-03-11T17:00:49.930Z,5.10
2023-03-11T17:04:51.553Z,4.90
2023-03-11T17:08:53.158Z,4.70
2023-03-11T17:12:54.926Z,4.80
2023-03-11T17:16:56.661Z,4.70
2023-03-11T17:20:58.967Z,4.70
2023-03-11T17:25:00.672Z,4.50
2023-03-11T17:29:02.343Z,4.50
2023-03-11T17:33:04.115Z,4.40
2023-03-11T17:37:05.943Z,4.30
2023-03-11T17:41:12.507Z,4.10
2023-03-11T17:45:14.110Z,4.10
2023-03-11T17:49:15.840Z,3.90
2023-03-11T17:53:17.531Z,3.80
2023-03-11T17:57:19.199Z,3.70
2023-03-11T18:01:22.240Z,3.70
2023-03-11T18:05:23.836Z,3.70
2023-03-11T18:09:25.464Z,3.40
2023-03-11T18:13:27.022Z,3.10
2023-03-11T18:17:29.009Z,3.10
2023-03-11T18:21:31.102Z,3.10
2023-03-11T18:25:32.759Z,3.20
2023-03-11T18:29:34.403Z,3.20
2023-03-11T18:33:36.373Z,3.10
2023-03-11T18:37:37.975Z,3.10
2023-03-11T18:41:40.055Z,3.10
2023-03-11T18:45:41.738Z,3.10
2023-03-11T18:49:43.522Z,3.10
2023-03-11T18:53:45.189Z,3.00
2023-03-11T18:57:47.495Z,2.90
2023-03-11T19:01:49.862Z,2.90
2023-03-11T19:05:52.348Z,2.80
2023-03-11T19:09:54.026Z,2.70
2023-03-11T19:13:55.650Z,2.60
2023-03-11T19:18:06.587Z,2.70
2023-03-11T19:22:08.981Z,2.50
2023-03-11T19:26:10.607Z,2.40
2023-03-11T19:30:12.659Z,1.90
2023-03-11T19:34:14.380Z,1.80
2023-03-11T19:38:15.953Z,1.80
2023-03-11T19:42:17.659Z,1.90
2023-03-11T19:46:21.035Z,1.80
2023-03-11T19:50:22.880Z,1.80
2023-03-11T19:54:24.534Z,1.40
2023-03-11T19:58:30.142Z,1.40
2023-03-11T20:02:32.442Z,1.40
2023-03-11T20:06:34.254Z,1.40
2023-03-11T20:10:40.232Z,1.40
2023-03-11T20:14:57.477Z,1.20
2023-03-11T20:19:10.098Z,1.20
2023-03-11T20:23:13.309Z,1.20
2023-03-11T20:27:15.289Z,1.10
2023-03-11T20:31:21.236Z,1.10
2023-03-11T20:35:23.442Z,0.80
2023-03-11T20:39:25.175Z,0.70
2023-03-11T20:43:26.912Z,0.70
2023-03-11T20:47:28.695Z,0.70
2023-03-11T20:51:30.709Z,0.80
2023-03-11T20:55:32.453Z,0.70
2023-03-11T20:59:34.213Z,0.60
2023-03-11T21:03:35.983Z,0.60
2023-03-11T21:07:37.653Z,0.70
2023-03-11T21:11:39.682Z,0.60
2023-03-11T21:15:41.356Z,0.70
2023-03-11T21:19:43.355Z,0.70
2023-03-11T21:23:47.181Z,0.70
2023-03-11T21:27:48.744Z,0.80
2023-03-11T21:31:50.463Z,0.80
2023-03-11T21:35:53.898Z,0.90
2023-03-11T21:39:55.675Z,0.80
2023-03-11T21:43:57.700Z,0.90
2023-03-11T21:47:59.422Z,1.10
2023-03-11T21:52:02.389Z,1.00
2023-03-11T21:56:04.737Z,0.90
2023-03-11T22:00:09.764Z,1.00
2023-03-11T22:04:11.524Z,1.10
2023-03-11T22:08:14.594Z,1.00
2023-03-11T22:12:16.298Z,0.70
2023-03-11T22:16:18.642Z,0.50
2023-03-11T22:20:20.621Z,0.50
2023-03-11T22:24:22.384Z,0.80
2023-03-11T22:28:24.181Z,0.90
2023-03-11T22:32:26.239Z,0.90
2023-03-11T22:36:28.168Z,0.90
2023-03-11T22:40:29.720Z,0.70
2023-03-11T22:44:31.391Z,0.70
2023-03-11T22:48:33.183Z,0.80
2023-03-11T22:52:34.798Z,0.90
2023-03-11T22:56:36.382Z,1.20
2023-03-11T23:00:38.200Z,1.30
2023-03-11T23:04:39.880Z,1.40
2023-03-11T23:08:49.081Z,1.40
2023-03-11T23:12:50.724Z,1.10
2023-03-11T23:16:52.414Z,1.20
2023-03-11T23:20:54.031Z,1.20
2023-03-11T23:24:55.663Z,1.30
2023-03-11T23:28:58.288Z,1.30
2023-03-11T23:33:03.916Z,1.30
2023-03-11T23:37:05.634Z,1.30
2023-03-11T23:41:08.261Z,1.30
2023-03-11T23:45:10.187Z,1.40
2023-03-11T23:49:11.824Z,1.50
2023-03-11T23:53:14.262Z,1.60
2023-03-11T23:57:15.825Z,1.60
